Atlantic Beach, FL

8:47 PM EST on February 06, 2016 (GMT -0500)
Reed Island | | Change Station
CLOSE
Current Station
Personal Weather Station
Location: Jacksonville, FL
Elevation: 10 ft
Nearby Weather Stations

Elev 10 ft 30.39 °N, 81.52 °W | Updated 9 seconds ago

Light Rain
Light Rain Mist
44.6 °F
Feels Like 45 °F
N
0.9
Wind Variable Wind from WNW
Gusts 11.0 mph

Today
High -- | Low -- °F
--% Chance of Precip.
Yesterday
High -- | Low -- °F
Precip. -- in
Pressure 30.10 in
Visibility 5.0 miles
Clouds Overcast 800 ft
Windchill 45 °F
Dew Point 45 °F
Humidity 100%
Rainfall 0.30 in
Snow Depth Not available.
7:13 AM 6:06 PM
Waning Crescent, 3% visible
METAR KCRG 070053Z 35012G22KT 5SM -RA BR OVC008 09/07 A3010 RMK AO2 CIG 005V011 SLP191 P0002 T00890072
Pressure 30.10 in
Visibility 5.0 miles
Clouds Overcast 800 ft
Windchill 45 °F
Dew Point 45 °F
Humidity 100%
Rainfall 0.30 in
Snow Depth Not available.
7:13 AM 6:06 PM
Waning Crescent, 3% visible
METAR KCRG 070053Z 35012G22KT 5SM -RA BR OVC008 09/07 A3010 RMK AO2 CIG 005V011 SLP191 P0002 T00890072

10-Day Weather Forecast

Almanac

Astronomy

Feb. 06, 2016 Rise Set
Actual Time
Civil Twilight
Nautical Twilight
Astronomical Twilight
Moon
Length of Visible Light
Length of Day
Tomorrow will be .
, % of the Moon is Illuminated

Today's Extremes

State Highs State Lows

Community

WunderPhotos

Upload Photos

1,891,123 photos uploaded!

WunderBlog® & News

Nearby

Air Quality

  Air Quality AQ Index Pollutant
Not available.

Snow Depth

Station Depth Elevation

Earthquake Activity

City Distance Mag. Time & Date
Minimum magnitude displayed is 2.5.

Coastal Water Temperatures

Place Temperature

Stations

Nearby Weather Stations

Station Location Temp. Windchill Dew Point Humidity Wind Precip. Elev Updated Type
                   

Watches & Warnings

There are currently no watches in effect.